sensor_id;sensor_type;location;lat;lon;timestamp;P1;durP1;ratioP1;P2;durP2;ratioP2
31760;SDS011;18335;51.486;7.562;2023-03-21T00:02:13;17.15;;;6.32;;
31760;SDS011;18335;51.486;7.562;2023-03-21T00:04:40;24.10;;;6.80;;
31760;SDS011;18335;51.486;7.562;2023-03-21T00:07:07;19.50;;;6.38;;
31760;SDS011;18335;51.486;7.562;2023-03-21T00:09:34;17.77;;;6.78;;
31760;SDS011;18335;51.486;7.562;2023-03-21T00:12:02;15.13;;;6.13;;
31760;SDS011;18335;51.486;7.562;2023-03-21T00:14:31;20.60;;;8.02;;
31760;SDS011;18335;51.486;7.562;2023-03-21T00:16:58;21.50;;;8.95;;
31760;SDS011;18335;51.486;7.562;2023-03-21T00:19:25;18.80;;;6.43;;
31760;SDS011;18335;51.486;7.562;2023-03-21T00:21:53;19.75;;;7.95;;
31760;SDS011;18335;51.486;7.562;2023-03-21T00:24:20;16.92;;;6.45;;
31760;SDS011;18335;51.486;7.562;2023-03-21T00:26:47;22.23;;;6.70;;
31760;SDS011;18335;51.486;7.562;2023-03-21T00:29:16;16.15;;;6.57;;
31760;SDS011;18335;51.486;7.562;2023-03-21T00:31:45;24.38;;;6.70;;
31760;SDS011;18335;51.486;7.562;2023-03-21T00:34:12;19.10;;;6.60;;
31760;SDS011;18335;51.486;7.562;2023-03-21T00:36:38;20.73;;;6.35;;
31760;SDS011;18335;51.486;7.562;2023-03-21T00:39:05;22.63;;;7.65;;
31760;SDS011;18335;51.486;7.562;2023-03-21T00:41:33;19.70;;;7.63;;
31760;SDS011;18335;51.486;7.562;2023-03-21T00:43:59;17.58;;;8.88;;
31760;SDS011;18335;51.486;7.562;2023-03-21T00:46:29;19.33;;;7.60;;
31760;SDS011;18335;51.486;7.562;2023-03-21T00:48:57;18.77;;;7.28;;
31760;SDS011;18335;51.486;7.562;2023-03-21T00:51:24;17.55;;;7.63;;
31760;SDS011;18335;51.486;7.562;2023-03-21T00:53:52;20.85;;;9.40;;
31760;SDS011;18335;51.486;7.562;2023-03-21T00:56:20;17.02;;;6.57;;
31760;SDS011;18335;51.486;7.562;2023-03-21T00:58:48;19.40;;;7.45;;
31760;SDS011;18335;51.486;7.562;2023-03-21T01:01:16;18.02;;;7.05;;
31760;SDS011;18335;51.486;7.562;2023-03-21T01:03:44;20.42;;;7.00;;
31760;SDS011;18335;51.486;7.562;2023-03-21T01:06:16;15.80;;;6.38;;
31760;SDS011;18335;51.486;7.562;2023-03-21T01:08:44;18.25;;;7.45;;
31760;SDS011;18335;51.486;7.562;2023-03-21T01:11:14;17.75;;;7.13;;
31760;SDS011;18335;51.486;7.562;2023-03-21T01:13:44;22.10;;;7.45;;
31760;SDS011;18335;51.486;7.562;2023-03-21T01:16:11;19.65;;;8.20;;
31760;SDS011;18335;51.486;7.562;2023-03-21T01:18:39;21.65;;;8.65;;
31760;SDS011;18335;51.486;7.562;2023-03-21T01:21:09;24.48;;;10.57;;
31760;SDS011;18335;51.486;7.562;2023-03-21T01:23:38;24.38;;;10.48;;
31760;SDS011;18335;51.486;7.562;2023-03-21T01:26:06;26.02;;;10.55;;
31760;SDS011;18335;51.486;7.562;2023-03-21T01:28:34;25.60;;;9.77;;
31760;SDS011;18335;51.486;7.562;2023-03-21T01:31:02;29.05;;;10.95;;
31760;SDS011;18335;51.486;7.562;2023-03-21T01:33:30;20.88;;;7.88;;
31760;SDS011;18335;51.486;7.562;2023-03-21T01:35:58;19.52;;;8.38;;
31760;SDS011;18335;51.486;7.562;2023-03-21T01:38:29;24.30;;;9.05;;
31760;SDS011;18335;51.486;7.562;2023-03-21T01:40:58;25.83;;;9.15;;
31760;SDS011;18335;51.486;7.562;2023-03-21T01:43:34;28.95;;;9.48;;
31760;SDS011;18335;51.486;7.562;2023-03-21T01:46:20;24.35;;;8.68;;
31760;SDS011;18335;51.486;7.562;2023-03-21T01:49:06;21.50;;;7.93;;
31760;SDS011;18335;51.486;7.562;2023-03-21T01:51:39;16.48;;;6.93;;
31760;SDS011;18335;51.486;7.562;2023-03-21T01:54:11;18.77;;;8.05;;
31760;SDS011;18335;51.486;7.562;2023-03-21T01:56:43;22.48;;;8.05;;
31760;SDS011;18335;51.486;7.562;2023-03-21T01:59:16;21.15;;;7.63;;
31760;SDS011;18335;51.486;7.562;2023-03-21T02:02:10;16.55;;;7.43;;
31760;SDS011;18335;51.486;7.562;2023-03-21T02:04:53;22.73;;;6.32;;
31760;SDS011;18335;51.486;7.562;2023-03-21T02:07:26;15.38;;;7.57;;
31760;SDS011;18335;51.486;7.562;2023-03-21T02:10:04;19.73;;;7.57;;
31760;SDS011;18335;51.486;7.562;2023-03-21T02:12:34;18.45;;;6.13;;
31760;SDS011;18335;51.486;7.562;2023-03-21T02:15:02;19.02;;;8.02;;
31760;SDS011;18335;51.486;7.562;2023-03-21T02:17:51;16.92;;;6.47;;
31760;SDS011;18335;51.486;7.562;2023-03-21T02:20:52;18.88;;;6.28;;
31760;SDS011;18335;51.486;7.562;2023-03-21T02:27:04;19.50;;;7.40;;
31760;SDS011;18335;51.486;7.562;2023-03-21T02:29:52;19.58;;;6.82;;
31760;SDS011;18335;51.486;7.562;2023-03-21T02:32:59;17.85;;;7.13;;
31760;SDS011;18335;51.486;7.562;2023-03-21T02:36:09;19.77;;;7.20;;
31760;SDS011;18335;51.486;7.562;2023-03-21T02:38:46;17.92;;;6.32;;
31760;SDS011;18335;51.486;7.562;2023-03-21T02:41:20;20.95;;;7.60;;
31760;SDS011;18335;51.486;7.562;2023-03-21T02:43:54;18.85;;;6.90;;
31760;SDS011;18335;51.486;7.562;2023-03-21T02:46:25;21.27;;;8.40;;
31760;SDS011;18335;51.486;7.562;2023-03-21T02:49:00;19.13;;;7.00;;
31760;SDS011;18335;51.486;7.562;2023-03-21T02:51:33;24.50;;;8.32;;
31760;SDS011;18335;51.486;7.562;2023-03-21T02:54:04;20.40;;;9.82;;
31760;SDS011;18335;51.486;7.562;2023-03-21T02:56:34;16.98;;;8.07;;
31760;SDS011;18335;51.486;7.562;2023-03-21T02:59:02;22.27;;;8.55;;
31760;SDS011;18335;51.486;7.562;2023-03-21T03:01:31;18.88;;;7.78;;
31760;SDS011;18335;51.486;7.562;2023-03-21T03:03:59;20.67;;;8.32;;
31760;SDS011;18335;51.486;7.562;2023-03-21T03:06:29;17.58;;;7.82;;
31760;SDS011;18335;51.486;7.562;2023-03-21T03:09:16;18.65;;;7.07;;
31760;SDS011;18335;51.486;7.562;2023-03-21T03:11:54;21.10;;;7.32;;
31760;SDS011;18335;51.486;7.562;2023-03-21T03:14:33;20.75;;;7.28;;
31760;SDS011;18335;51.486;7.562;2023-03-21T03:17:12;24.83;;;8.15;;
31760;SDS011;18335;51.486;7.562;2023-03-21T03:19:49;25.02;;;9.45;;
31760;SDS011;18335;51.486;7.562;2023-03-21T03:22:34;19.35;;;7.97;;
31760;SDS011;18335;51.486;7.562;2023-03-21T03:25:10;21.88;;;8.02;;
31760;SDS011;18335;51.486;7.562;2023-03-21T03:27:40;20.70;;;8.63;;
31760;SDS011;18335;51.486;7.562;2023-03-21T03:30:09;17.63;;;7.90;;
31760;SDS011;18335;51.486;7.562;2023-03-21T03:32:38;19.05;;;8.98;;
31760;SDS011;18335;51.486;7.562;2023-03-21T03:35:09;18.05;;;8.40;;
31760;SDS011;18335;51.486;7.562;2023-03-21T03:37:39;22.80;;;9.50;;
31760;SDS011;18335;51.486;7.562;2023-03-21T03:40:10;20.85;;;9.35;;
31760;SDS011;18335;51.486;7.562;2023-03-21T03:42:51;20.90;;;8.40;;
31760;SDS011;18335;51.486;7.562;2023-03-21T03:45:27;18.38;;;8.88;;
31760;SDS011;18335;51.486;7.562;2023-03-21T03:48:01;20.00;;;9.80;;
31760;SDS011;18335;51.486;7.562;2023-03-21T03:50:37;22.20;;;9.82;;
31760;SDS011;18335;51.486;7.562;2023-03-21T03:53:14;19.48;;;9.23;;
31760;SDS011;18335;51.486;7.562;2023-03-21T03:55:49;20.85;;;8.80;;
31760;SDS011;18335;51.486;7.562;2023-03-21T03:58:19;26.98;;;8.88;;
31760;SDS011;18335;51.486;7.562;2023-03-21T04:00:47;23.70;;;9.00;;
31760;SDS011;18335;51.486;7.562;2023-03-21T04:03:14;19.50;;;10.23;;
31760;SDS011;18335;51.486;7.562;2023-03-21T04:05:41;23.58;;;10.50;;
31760;SDS011;18335;51.486;7.562;2023-03-21T04:08:12;19.52;;;8.68;;
31760;SDS011;18335;51.486;7.562;2023-03-21T04:10:42;18.60;;;8.73;;
31760;SDS011;18335;51.486;7.562;2023-03-21T04:13:11;22.30;;;10.43;;
31760;SDS011;18335;51.486;7.562;2023-03-21T04:15:46;23.17;;;10.45;;
31760;SDS011;18335;51.486;7.562;2023-03-21T04:18:15;20.77;;;9.20;;
31760;SDS011;18335;51.486;7.562;2023-03-21T04:20:42;26.42;;;10.15;;
31760;SDS011;18335;51.486;7.562;2023-03-21T04:23:10;20.15;;;10.32;;
31760;SDS011;18335;51.486;7.562;2023-03-21T04:25:41;21.45;;;8.77;;
31760;SDS011;18335;51.486;7.562;2023-03-21T04:28:10;26.20;;;10.73;;
31760;SDS011;18335;51.486;7.562;2023-03-21T04:30:42;23.10;;;11.02;;
31760;SDS011;18335;51.486;7.562;2023-03-21T04:33:13;23.25;;;11.18;;
31760;SDS011;18335;51.486;7.562;2023-03-21T04:35:48;23.90;;;10.05;;
31760;SDS011;18335;51.486;7.562;2023-03-21T04:38:16;20.23;;;9.82;;
31760;SDS011;18335;51.486;7.562;2023-03-21T04:40:42;26.30;;;11.30;;
31760;SDS011;18335;51.486;7.562;2023-03-21T04:43:11;23.95;;;10.13;;
31760;SDS011;18335;51.486;7.562;2023-03-21T04:45:38;18.65;;;9.38;;
31760;SDS011;18335;51.486;7.562;2023-03-21T04:48:06;20.92;;;9.13;;
31760;SDS011;18335;51.486;7.562;2023-03-21T04:50:33;23.33;;;11.05;;
31760;SDS011;18335;51.486;7.562;2023-03-21T04:53:00;23.90;;;10.32;;
31760;SDS011;18335;51.486;7.562;2023-03-21T04:55:27;22.23;;;10.05;;
31760;SDS011;18335;51.486;7.562;2023-03-21T04:57:56;22.48;;;9.93;;
31760;SDS011;18335;51.486;7.562;2023-03-21T05:00:24;20.52;;;8.95;;
31760;SDS011;18335;51.486;7.562;2023-03-21T05:02:51;20.08;;;8.80;;
31760;SDS011;18335;51.486;7.562;2023-03-21T05:05:19;21.90;;;9.25;;
31760;SDS011;18335;51.486;7.562;2023-03-21T05:07:46;21.92;;;10.45;;
31760;SDS011;18335;51.486;7.562;2023-03-21T05:10:13;20.08;;;9.27;;
31760;SDS011;18335;51.486;7.562;2023-03-21T05:12:40;21.88;;;9.50;;
31760;SDS011;18335;51.486;7.562;2023-03-21T05:15:08;23.38;;;10.52;;
31760;SDS011;18335;51.486;7.562;2023-03-21T05:17:37;22.30;;;9.23;;
31760;SDS011;18335;51.486;7.562;2023-03-21T05:20:08;23.35;;;9.93;;
31760;SDS011;18335;51.486;7.562;2023-03-21T05:22:36;25.13;;;9.38;;
31760;SDS011;18335;51.486;7.562;2023-03-21T05:25:07;21.20;;;10.45;;
31760;SDS011;18335;51.486;7.562;2023-03-21T05:27:56;19.63;;;9.43;;
31760;SDS011;18335;51.486;7.562;2023-03-21T05:30:28;17.52;;;9.18;;
31760;SDS011;18335;51.486;7.562;2023-03-21T05:32:59;17.65;;;8.98;;
31760;SDS011;18335;51.486;7.562;2023-03-21T05:35:26;22.15;;;8.45;;
31760;SDS011;18335;51.486;7.562;2023-03-21T05:37:55;18.42;;;8.13;;
31760;SDS011;18335;51.486;7.562;2023-03-21T05:40:24;22.77;;;9.23;;
31760;SDS011;18335;51.486;7.562;2023-03-21T05:42:55;20.65;;;8.48;;
31760;SDS011;18335;51.486;7.562;2023-03-21T05:45:23;28.00;;;9.68;;
31760;SDS011;18335;51.486;7.562;2023-03-21T05:47:50;20.52;;;10.25;;
31760;SDS011;18335;51.486;7.562;2023-03-21T05:50:22;20.70;;;8.82;;
31760;SDS011;18335;51.486;7.562;2023-03-21T05:53:02;24.73;;;9.88;;
31760;SDS011;18335;51.486;7.562;2023-03-21T05:55:29;21.60;;;7.68;;
31760;SDS011;18335;51.486;7.562;2023-03-21T05:57:56;20.73;;;7.88;;
31760;SDS011;18335;51.486;7.562;2023-03-21T06:00:26;16.90;;;7.85;;
31760;SDS011;18335;51.486;7.562;2023-03-21T06:03:10;21.20;;;8.02;;
31760;SDS011;18335;51.486;7.562;2023-03-21T06:05:55;15.13;;;7.88;;
31760;SDS011;18335;51.486;7.562;2023-03-21T06:08:26;21.05;;;8.23;;
31760;SDS011;18335;51.486;7.562;2023-03-21T06:10:54;18.15;;;8.25;;
31760;SDS011;18335;51.486;7.562;2023-03-21T06:13:21;19.13;;;7.63;;
31760;SDS011;18335;51.486;7.562;2023-03-21T06:15:48;17.38;;;7.32;;
31760;SDS011;18335;51.486;7.562;2023-03-21T06:18:18;15.15;;;7.22;;
31760;SDS011;18335;51.486;7.562;2023-03-21T06:21:09;17.98;;;7.07;;
31760;SDS011;18335;51.486;7.562;2023-03-21T06:23:38;17.17;;;7.68;;
31760;SDS011;18335;51.486;7.562;2023-03-21T06:26:05;18.63;;;8.35;;
31760;SDS011;18335;51.486;7.562;2023-03-21T06:28:34;19.85;;;8.02;;
31760;SDS011;18335;51.486;7.562;2023-03-21T06:31:01;19.83;;;7.80;;
31760;SDS011;18335;51.486;7.562;2023-03-21T06:33:29;20.15;;;7.47;;
31760;SDS011;18335;51.486;7.562;2023-03-21T06:35:57;19.50;;;7.35;;
31760;SDS011;18335;51.486;7.562;2023-03-21T06:38:25;21.50;;;8.10;;
31760;SDS011;18335;51.486;7.562;2023-03-21T06:40:52;16.85;;;7.35;;
31760;SDS011;18335;51.486;7.562;2023-03-21T06:43:21;17.98;;;6.82;;
31760;SDS011;18335;51.486;7.562;2023-03-21T06:45:48;19.90;;;7.10;;
31760;SDS011;18335;51.486;7.562;2023-03-21T06:48:15;20.60;;;7.70;;
31760;SDS011;18335;51.486;7.562;2023-03-21T06:50:49;22.55;;;7.85;;
31760;SDS011;18335;51.486;7.562;2023-03-21T06:53:17;20.10;;;7.60;;
31760;SDS011;18335;51.486;7.562;2023-03-21T06:56:10;14.73;;;7.35;;
31760;SDS011;18335;51.486;7.562;2023-03-21T06:58:39;18.80;;;6.50;;
31760;SDS011;18335;51.486;7.562;2023-03-21T07:01:12;19.20;;;7.93;;
31760;SDS011;18335;51.486;7.562;2023-03-21T07:03:50;22.70;;;7.05;;
31760;SDS011;18335;51.486;7.562;2023-03-21T07:06:19;17.15;;;6.80;;
31760;SDS011;18335;51.486;7.562;2023-03-21T07:08:46;17.30;;;7.18;;
31760;SDS011;18335;51.486;7.562;2023-03-21T07:11:14;20.88;;;9.75;;
31760;SDS011;18335;51.486;7.562;2023-03-21T07:13:45;21.50;;;8.43;;
31760;SDS011;18335;51.486;7.562;2023-03-21T07:16:13;18.95;;;8.23;;
31760;SDS011;18335;51.486;7.562;2023-03-21T07:18:40;23.75;;;9.25;;
31760;SDS011;18335;51.486;7.562;2023-03-21T07:21:07;17.58;;;7.75;;
31760;SDS011;18335;51.486;7.562;2023-03-21T07:23:34;20.27;;;7.95;;
31760;SDS011;18335;51.486;7.562;2023-03-21T07:26:02;21.50;;;6.50;;
31760;SDS011;18335;51.486;7.562;2023-03-21T07:28:31;17.67;;;6.38;;
31760;SDS011;18335;51.486;7.562;2023-03-21T07:30:59;18.33;;;7.05;;
31760;SDS011;18335;51.486;7.562;2023-03-21T07:33:28;18.05;;;6.50;;
31760;SDS011;18335;51.486;7.562;2023-03-21T07:35:58;17.75;;;6.43;;
31760;SDS011;18335;51.486;7.562;2023-03-21T07:38:25;14.07;;;6.13;;
31760;SDS011;18335;51.486;7.562;2023-03-21T07:40:57;13.70;;;6.10;;
31760;SDS011;18335;51.486;7.562;2023-03-21T07:43:24;19.60;;;7.22;;
31760;SDS011;18335;51.486;7.562;2023-03-21T07:45:56;23.27;;;6.63;;
31760;SDS011;18335;51.486;7.562;2023-03-21T07:48:25;15.95;;;6.03;;
31760;SDS011;18335;51.486;7.562;2023-03-21T07:50:52;19.25;;;6.32;;
31760;SDS011;18335;51.486;7.562;2023-03-21T07:53:18;21.13;;;7.00;;
31760;SDS011;18335;51.486;7.562;2023-03-21T07:55:48;19.13;;;6.25;;
31760;SDS011;18335;51.486;7.562;2023-03-21T07:58:15;18.23;;;6.32;;
31760;SDS011;18335;51.486;7.562;2023-03-21T08:00:42;24.63;;;6.90;;
31760;SDS011;18335;51.486;7.562;2023-03-21T08:03:10;14.23;;;6.43;;
31760;SDS011;18335;51.486;7.562;2023-03-21T08:05:37;17.15;;;6.80;;
31760;SDS011;18335;51.486;7.562;2023-03-21T08:08:04;18.38;;;6.57;;
31760;SDS011;18335;51.486;7.562;2023-03-21T08:10:32;19.90;;;6.93;;
31760;SDS011;18335;51.486;7.562;2023-03-21T08:12:59;14.10;;;6.38;;
31760;SDS011;18335;51.486;7.562;2023-03-21T08:15:26;15.65;;;6.30;;
31760;SDS011;18335;51.486;7.562;2023-03-21T08:17:52;21.40;;;7.45;;
31760;SDS011;18335;51.486;7.562;2023-03-21T08:20:21;18.02;;;5.80;;
31760;SDS011;18335;51.486;7.562;2023-03-21T08:22:48;19.40;;;6.97;;
31760;SDS011;18335;51.486;7.562;2023-03-21T08:25:15;17.83;;;7.03;;
31760;SDS011;18335;51.486;7.562;2023-03-21T08:27:44;19.73;;;7.13;;
31760;SDS011;18335;51.486;7.562;2023-03-21T08:30:12;21.10;;;6.95;;
31760;SDS011;18335;51.486;7.562;2023-03-21T08:32:40;22.52;;;7.95;;
31760;SDS011;18335;51.486;7.562;2023-03-21T08:35:08;18.50;;;7.00;;
31760;SDS011;18335;51.486;7.562;2023-03-21T08:37:37;22.77;;;7.07;;
31760;SDS011;18335;51.486;7.562;2023-03-21T08:40:05;18.20;;;7.32;;
31760;SDS011;18335;51.486;7.562;2023-03-21T08:42:35;20.55;;;7.70;;
31760;SDS011;18335;51.486;7.562;2023-03-21T08:45:02;19.50;;;7.18;;
31760;SDS011;18335;51.486;7.562;2023-03-21T08:47:29;18.52;;;7.18;;
31760;SDS011;18335;51.486;7.562;2023-03-21T08:49:55;23.85;;;7.78;;
31760;SDS011;18335;51.486;7.562;2023-03-21T08:52:23;21.42;;;9.98;;
31760;SDS011;18335;51.486;7.562;2023-03-21T08:54:51;20.98;;;9.65;;
31760;SDS011;18335;51.486;7.562;2023-03-21T08:57:18;19.90;;;8.48;;
31760;SDS011;18335;51.486;7.562;2023-03-21T08:59:44;14.27;;;7.10;;
31760;SDS011;18335;51.486;7.562;2023-03-21T09:02:12;20.10;;;7.75;;
31760;SDS011;18335;51.486;7.562;2023-03-21T09:04:39;17.02;;;7.55;;
31760;SDS011;18335;51.486;7.562;2023-03-21T09:07:07;18.08;;;8.27;;
31760;SDS011;18335;51.486;7.562;2023-03-21T09:09:35;19.75;;;7.95;;
31760;SDS011;18335;51.486;7.562;2023-03-21T09:12:03;20.23;;;8.05;;
31760;SDS011;18335;51.486;7.562;2023-03-21T09:14:30;18.67;;;9.02;;
31760;SDS011;18335;51.486;7.562;2023-03-21T09:16:58;24.05;;;9.10;;
31760;SDS011;18335;51.486;7.562;2023-03-21T09:19:25;18.23;;;8.57;;
31760;SDS011;18335;51.486;7.562;2023-03-21T09:21:54;18.85;;;8.48;;
31760;SDS011;18335;51.486;7.562;2023-03-21T09:24:22;19.83;;;7.32;;
31760;SDS011;18335;51.486;7.562;2023-03-21T09:26:48;14.02;;;7.10;;
31760;SDS011;18335;51.486;7.562;2023-03-21T09:29:17;14.90;;;6.88;;
31760;SDS011;18335;51.486;7.562;2023-03-21T09:31:45;17.20;;;7.65;;
31760;SDS011;18335;51.486;7.562;2023-03-21T09:34:12;13.95;;;7.80;;
31760;SDS011;18335;51.486;7.562;2023-03-21T09:36:39;19.10;;;7.15;;
31760;SDS011;18335;51.486;7.562;2023-03-21T09:39:08;14.48;;;6.57;;
31760;SDS011;18335;51.486;7.562;2023-03-21T09:41:42;16.00;;;6.18;;
31760;SDS011;18335;51.486;7.562;2023-03-21T09:44:26;17.23;;;7.05;;
31760;SDS011;18335;51.486;7.562;2023-03-21T09:47:07;23.33;;;7.30;;
31760;SDS011;18335;51.486;7.562;2023-03-21T09:49:42;16.70;;;6.50;;
31760;SDS011;18335;51.486;7.562;2023-03-21T09:52:15;17.85;;;6.60;;
31760;SDS011;18335;51.486;7.562;2023-03-21T09:54:44;13.25;;;6.07;;
31760;SDS011;18335;51.486;7.562;2023-03-21T09:57:14;19.75;;;6.13;;
31760;SDS011;18335;51.486;7.562;2023-03-21T09:59:47;11.85;;;5.75;;
31760;SDS011;18335;51.486;7.562;2023-03-21T10:02:25;19.63;;;6.32;;
31760;SDS011;18335;51.486;7.562;2023-03-21T10:05:00;14.45;;;7.22;;
31760;SDS011;18335;51.486;7.562;2023-03-21T10:07:33;15.50;;;6.13;;
31760;SDS011;18335;51.486;7.562;2023-03-21T10:10:06;15.20;;;6.68;;
31760;SDS011;18335;51.486;7.562;2023-03-21T10:12:40;13.80;;;6.00;;
31760;SDS011;18335;51.486;7.562;2023-03-21T10:15:13;16.88;;;6.55;;
31760;SDS011;18335;51.486;7.562;2023-03-21T10:17:43;15.75;;;5.72;;
31760;SDS011;18335;51.486;7.562;2023-03-21T10:20:15;15.05;;;6.00;;
31760;SDS011;18335;51.486;7.562;2023-03-21T10:22:46;15.35;;;6.03;;
31760;SDS011;18335;51.486;7.562;2023-03-21T10:25:15;12.75;;;5.97;;
31760;SDS011;18335;51.486;7.562;2023-03-21T10:27:44;13.32;;;5.90;;
31760;SDS011;18335;51.486;7.562;2023-03-21T10:30:17;16.15;;;5.72;;
31760;SDS011;18335;51.486;7.562;2023-03-21T10:32:50;13.20;;;5.10;;
31760;SDS011;18335;51.486;7.562;2023-03-21T10:35:17;15.77;;;5.50;;
31760;SDS011;18335;51.486;7.562;2023-03-21T10:37:45;12.05;;;5.13;;
31760;SDS011;18335;51.486;7.562;2023-03-21T10:40:13;12.40;;;4.47;;
31760;SDS011;18335;51.486;7.562;2023-03-21T10:42:41;11.18;;;4.25;;
31760;SDS011;18335;51.486;7.562;2023-03-21T10:45:12;13.68;;;4.18;;
31760;SDS011;18335;51.486;7.562;2023-03-21T10:47:43;13.35;;;4.75;;
31760;SDS011;18335;51.486;7.562;2023-03-21T10:50:14;12.85;;;4.10;;
31760;SDS011;18335;51.486;7.562;2023-03-21T10:52:45;12.43;;;5.07;;
31760;SDS011;18335;51.486;7.562;2023-03-21T10:55:19;10.60;;;3.60;;
31760;SDS011;18335;51.486;7.562;2023-03-21T10:57:52;14.23;;;4.68;;
31760;SDS011;18335;51.486;7.562;2023-03-21T11:00:24;12.68;;;3.88;;
31760;SDS011;18335;51.486;7.562;2023-03-21T11:02:54;8.88;;;4.40;;
31760;SDS011;18335;51.486;7.562;2023-03-21T11:05:24;10.15;;;4.35;;
31760;SDS011;18335;51.486;7.562;2023-03-21T11:07:59;12.85;;;3.58;;
31760;SDS011;18335;51.486;7.562;2023-03-21T11:10:29;13.73;;;5.30;;
31760;SDS011;18335;51.486;7.562;2023-03-21T11:13:00;12.15;;;4.45;;
31760;SDS011;18335;51.486;7.562;2023-03-21T11:15:31;10.38;;;3.22;;
31760;SDS011;18335;51.486;7.562;2023-03-21T11:18:13;10.23;;;3.75;;
31760;SDS011;18335;51.486;7.562;2023-03-21T11:20:43;12.50;;;4.15;;
31760;SDS011;18335;51.486;7.562;2023-03-21T11:23:15;12.07;;;3.80;;
31760;SDS011;18335;51.486;7.562;2023-03-21T11:25:42;10.75;;;3.28;;
31760;SDS011;18335;51.486;7.562;2023-03-21T11:28:14;10.15;;;4.38;;
31760;SDS011;18335;51.486;7.562;2023-03-21T11:30:49;12.63;;;4.47;;
31760;SDS011;18335;51.486;7.562;2023-03-21T11:33:19;12.45;;;4.35;;
31760;SDS011;18335;51.486;7.562;2023-03-21T11:35:57;10.73;;;3.72;;
31760;SDS011;18335;51.486;7.562;2023-03-21T11:38:26;13.88;;;4.15;;
31760;SDS011;18335;51.486;7.562;2023-03-21T11:40:57;15.77;;;4.68;;
31760;SDS011;18335;51.486;7.562;2023-03-21T11:43:25;8.07;;;3.25;;
31760;SDS011;18335;51.486;7.562;2023-03-21T11:45:55;8.85;;;3.28;;
31760;SDS011;18335;51.486;7.562;2023-03-21T11:48:24;15.05;;;4.30;;
31760;SDS011;18335;51.486;7.562;2023-03-21T11:50:51;16.13;;;4.30;;
31760;SDS011;18335;51.486;7.562;2023-03-21T11:53:26;9.00;;;3.15;;
31760;SDS011;18335;51.486;7.562;2023-03-21T11:56:03;9.52;;;2.88;;
31760;SDS011;18335;51.486;7.562;2023-03-21T11:58:44;11.82;;;4.18;;
31760;SDS011;18335;51.486;7.562;2023-03-21T12:01:20;9.95;;;3.22;;
31760;SDS011;18335;51.486;7.562;2023-03-21T12:06:45;9.10;;;3.13;;
31760;SDS011;18335;51.486;7.562;2023-03-21T12:09:25;8.60;;;3.22;;
31760;SDS011;18335;51.486;7.562;2023-03-21T12:12:01;10.57;;;3.13;;
31760;SDS011;18335;51.486;7.562;2023-03-21T12:14:37;13.68;;;3.88;;
31760;SDS011;18335;51.486;7.562;2023-03-21T12:17:16;10.57;;;3.38;;
31760;SDS011;18335;51.486;7.562;2023-03-21T12:22:58;9.25;;;3.03;;
31760;SDS011;18335;51.486;7.562;2023-03-21T12:25:39;8.63;;;2.60;;
31760;SDS011;18335;51.486;7.562;2023-03-21T12:28:14;10.57;;;3.20;;
31760;SDS011;18335;51.486;7.562;2023-03-21T12:30:52;9.45;;;3.00;;
31760;SDS011;18335;51.486;7.562;2023-03-21T12:33:31;8.10;;;2.60;;
31760;SDS011;18335;51.486;7.562;2023-03-21T12:36:15;9.02;;;3.33;;
31760;SDS011;18335;51.486;7.562;2023-03-21T12:39:02;9.55;;;2.38;;
31760;SDS011;18335;51.486;7.562;2023-03-21T12:41:42;9.45;;;2.28;;
31760;SDS011;18335;51.486;7.562;2023-03-21T12:44:16;8.98;;;3.60;;
31760;SDS011;18335;51.486;7.562;2023-03-21T12:46:49;6.70;;;2.30;;
31760;SDS011;18335;51.486;7.562;2023-03-21T12:49:22;7.65;;;2.20;;
31760;SDS011;18335;51.486;7.562;2023-03-21T12:51:56;8.35;;;2.58;;
31760;SDS011;18335;51.486;7.562;2023-03-21T12:54:28;9.95;;;2.38;;
31760;SDS011;18335;51.486;7.562;2023-03-21T12:57:02;8.35;;;2.72;;
31760;SDS011;18335;51.486;7.562;2023-03-21T12:59:33;12.00;;;3.50;;
31760;SDS011;18335;51.486;7.562;2023-03-21T13:02:09;9.38;;;2.63;;
31760;SDS011;18335;51.486;7.562;2023-03-21T13:04:44;9.65;;;3.10;;
31760;SDS011;18335;51.486;7.562;2023-03-21T13:07:16;10.50;;;2.90;;
31760;SDS011;18335;51.486;7.562;2023-03-21T13:09:48;14.30;;;3.33;;
31760;SDS011;18335;51.486;7.562;2023-03-21T13:12:21;8.15;;;2.45;;
31760;SDS011;18335;51.486;7.562;2023-03-21T13:15:06;7.55;;;2.80;;
31760;SDS011;18335;51.486;7.562;2023-03-21T13:17:44;7.97;;;2.20;;
31760;SDS011;18335;51.486;7.562;2023-03-21T13:20:24;7.75;;;2.50;;
31760;SDS011;18335;51.486;7.562;2023-03-21T13:22:54;12.47;;;3.30;;
31760;SDS011;18335;51.486;7.562;2023-03-21T13:25:22;10.50;;;3.30;;
31760;SDS011;18335;51.486;7.562;2023-03-21T13:27:51;7.72;;;2.85;;
31760;SDS011;18335;51.486;7.562;2023-03-21T13:30:20;5.85;;;2.70;;
31760;SDS011;18335;51.486;7.562;2023-03-21T13:32:50;7.57;;;2.60;;
31760;SDS011;18335;51.486;7.562;2023-03-21T13:35:21;9.23;;;2.83;;
31760;SDS011;18335;51.486;7.562;2023-03-21T13:37:52;9.88;;;2.72;;
31760;SDS011;18335;51.486;7.562;2023-03-21T13:40:25;8.85;;;3.13;;
31760;SDS011;18335;51.486;7.562;2023-03-21T13:42:54;8.02;;;2.55;;
31760;SDS011;18335;51.486;7.562;2023-03-21T13:45:26;7.25;;;2.60;;
31760;SDS011;18335;51.486;7.562;2023-03-21T13:47:56;7.53;;;2.45;;
31760;SDS011;18335;51.486;7.562;2023-03-21T13:50:25;7.07;;;2.47;;
31760;SDS011;18335;51.486;7.562;2023-03-21T13:53:08;9.02;;;2.65;;
31760;SDS011;18335;51.486;7.562;2023-03-21T13:55:46;8.68;;;2.80;;
31760;SDS011;18335;51.486;7.562;2023-03-21T13:58:30;7.05;;;2.40;;
31760;SDS011;18335;51.486;7.562;2023-03-21T14:01:09;5.65;;;2.30;;
31760;SDS011;18335;51.486;7.562;2023-03-21T14:03:42;9.02;;;2.33;;
31760;SDS011;18335;51.486;7.562;2023-03-21T14:06:11;6.10;;;2.35;;
31760;SDS011;18335;51.486;7.562;2023-03-21T14:08:40;9.82;;;2.53;;
31760;SDS011;18335;51.486;7.562;2023-03-21T14:11:12;7.13;;;2.40;;
31760;SDS011;18335;51.486;7.562;2023-03-21T14:13:43;9.77;;;2.47;;
31760;SDS011;18335;51.486;7.562;2023-03-21T14:16:11;11.02;;;3.35;;
31760;SDS011;18335;51.486;7.562;2023-03-21T14:18:41;9.30;;;2.22;;
31760;SDS011;18335;51.486;7.562;2023-03-21T14:21:13;7.70;;;2.70;;
31760;SDS011;18335;51.486;7.562;2023-03-21T14:23:42;6.43;;;2.35;;
31760;SDS011;18335;51.486;7.562;2023-03-21T14:26:09;10.65;;;3.13;;
31760;SDS011;18335;51.486;7.562;2023-03-21T14:28:40;7.95;;;2.63;;
31760;SDS011;18335;51.486;7.562;2023-03-21T14:31:11;8.15;;;2.65;;
31760;SDS011;18335;51.486;7.562;2023-03-21T14:33:41;6.28;;;2.40;;
31760;SDS011;18335;51.486;7.562;2023-03-21T14:36:15;6.15;;;2.40;;
31760;SDS011;18335;51.486;7.562;2023-03-21T14:38:52;8.38;;;2.72;;
31760;SDS011;18335;51.486;7.562;2023-03-21T14:41:23;10.95;;;3.05;;
31760;SDS011;18335;51.486;7.562;2023-03-21T14:44:10;8.25;;;2.65;;
31760;SDS011;18335;51.486;7.562;2023-03-21T14:46:41;4.35;;;1.90;;
31760;SDS011;18335;51.486;7.562;2023-03-21T14:49:13;6.22;;;3.80;;
31760;SDS011;18335;51.486;7.562;2023-03-21T14:51:45;5.95;;;2.58;;
31760;SDS011;18335;51.486;7.562;2023-03-21T14:54:13;10.25;;;3.13;;
31760;SDS011;18335;51.486;7.562;2023-03-21T14:56:44;7.88;;;2.60;;
31760;SDS011;18335;51.486;7.562;2023-03-21T14:59:14;11.00;;;3.95;;
31760;SDS011;18335;51.486;7.562;2023-03-21T15:01:42;9.88;;;2.63;;
31760;SDS011;18335;51.486;7.562;2023-03-21T15:04:11;9.20;;;2.65;;
31760;SDS011;18335;51.486;7.562;2023-03-21T15:06:50;6.53;;;2.55;;
31760;SDS011;18335;51.486;7.562;2023-03-21T15:09:20;6.47;;;2.50;;
31760;SDS011;18335;51.486;7.562;2023-03-21T15:11:50;7.47;;;2.47;;